Washington Executive test (W32)
Clinton, MD
Field Elevation: 249
Lat: 38°44.89N  Long: 76°55.97W
CTAF/Unicom Freq: 122.8000
   
    
Weather Advisories
3/2/2015 00:54 Z
Altimeter 30.29" Hg
Wind 226° @ 3 KT
Gusts 5 KT
Temperature -1° C (30° F)
Dewpoint -2° C (28° F)
Relative Humidity 89%
Density Altitude -2,297 feet
Condensation Altitude 1,059 feet
Wind Chill -3° C (27° F)
  Wind and Runways
Indicated Runway = 23
History
 
 
More Info
All DigiWx sites map
Weather Radar
NOAA Forecast
 
Airport IQ 5010
(HMIEM) Shock Trauma Ctr
(26N) Ocean City
 
about DigiWx
 
FAA Disclaimer: The data displayed is for advisory purposes only and is not to be used for flight planning or operations. For official data, please call (not available) to hear the current automated AWOS voice message.
  METAR W32 020054Z AUTO 23003G05KT M01/M02 A3029